PILOTS ONLINE: 275    ATC ONLINE: 20

KNKT

Cherry Point MCAS /Cunningham Field/

Location

City Cherry Point
Country  United States
Latitude 34° 54' 3" N
Longitude 76° 52' 50" W
Elevation 29 ft
Type Medium Airport

Map

Weather

METAR
2014/09/17 11:08
KNKT 171108Z 00000KT 10SM BKN013 BKN019 OVC055 22/21 A2994 RMK AO2 T02170206 
TAF
2014/09/17 09:56
TAF KNKT 1709/1809 VRB05KT 9999 VCTS SCT020 BKN025 OVC050 QNH2990INS 
      TEMPO 1709/1715 VRB15G25KT 4800 TSRA BKN020 OVC040 
     FM171500 06008KT 9999 SCT025 BKN040 BKN080 QNH2992INS 
     FM171900 06007KT 9999 FEW030 SCT090 QNH2988INS 
      BECMG 1800/1802 03004KT 9999 FEW080 FEW120 QNH2991INS T27/1717Z T18/1808Z

Runways

05L/23R 7553 ft / 200 ft
05R/23L 8188 ft / 196 ft
14L/32R 8984 ft / 200 ft
14R/32L 8399 ft / 200 ft

Outbound flights

Callsign Flying to Pilot ATD/STD ETA Aircraft

Inbound flights

Callsign Flying from Pilot ATD ETA Aircraft